Time;durP1;ratioP1;P1;durP2;ratioP2;P2;SDS_P1;SDS_P2;PMS_P1;PMS_P2;Temp;Humidity;BMP_temperature;BMP_pressure;BME280_temperature;BME280_humidity;BME280_pressure;Samples;Min_cycle;Max_cycle;Signal;HPM_P1;HPM_P2
2022/11/10 00:00:57;;;;;;;4.03;3.33;;;21.70;99.90;;;;;;6184511;28;89332;-64
2022/11/10 00:03:59;;;;;;;4.72;3.65;;;21.60;99.90;;;;;;6183687;28;89338;-64
2022/11/10 00:07:01;;;;;;;3.55;3.25;;;21.60;99.90;;;;;;6183164;28;90213;-64
2022/11/10 00:10:04;;;;;;;4.43;3.85;;;21.60;99.90;;;;;;6184117;28;89242;-64
2022/11/10 00:13:06;;;;;;;4.10;3.70;;;21.60;99.90;;;;;;6184108;28;89061;-64
2022/11/10 00:19:30;;;;;;;4.07;3.60;;;21.60;99.90;;;;;;6184263;28;88408;-64
2022/11/10 00:22:33;;;;;;;4.28;3.05;;;21.60;99.90;;;;;;6183930;28;88114;-64
2022/11/10 00:25:35;;;;;;;3.63;3.33;;;21.60;99.90;;;;;;6183488;28;88041;-64
2022/11/10 00:28:37;;;;;;;4.00;3.60;;;21.60;99.90;;;;;;6184447;28;88523;-64
2022/11/10 00:31:41;;;;;;;4.20;3.80;;;21.60;99.90;;;;;;6183697;28;89203;-64
2022/11/10 00:34:43;;;;;;;3.92;3.53;;;21.50;99.90;;;;;;6184213;28;89271;-64
2022/11/10 00:37:45;;;;;;;3.80;3.50;;;21.60;99.90;;;;;;6183558;28;90147;-63
2022/11/10 00:40:48;;;;;;;4.45;3.80;;;21.60;99.90;;;;;;6184473;28;89346;-64
2022/11/10 00:43:50;;;;;;;3.70;3.30;;;21.50;99.90;;;;;;6182758;28;89157;-64
2022/11/10 00:46:54;;;;;;;4.25;3.85;;;21.50;99.90;;;;;;6183038;28;89124;-64
2022/11/10 00:49:56;;;;;;;4.00;3.60;;;21.50;99.90;;;;;;6183854;28;89326;-64
2022/11/10 00:52:58;;;;;;;4.10;3.70;;;21.50;99.90;;;;;;6183655;28;89338;-64
2022/11/10 00:55:59;;;;;;;4.90;4.05;;;21.50;99.90;;;;;;6182132;28;89197;-64
2022/11/10 00:59:02;;;;;;;4.07;3.70;;;21.50;99.90;;;;;;6183058;28;88531;-64
2022/11/10 01:02:05;;;;;;;3.70;3.40;;;21.50;99.90;;;;;;6182808;28;89513;-64
2022/11/10 01:05:08;;;;;;;4.35;3.80;;;21.50;99.90;;;;;;6182876;28;88983;-64
2022/11/10 01:08:10;;;;;;;4.50;3.85;;;21.50;99.90;;;;;;6182655;28;90284;-64
2022/11/10 01:11:15;;;;;;;4.25;3.63;;;21.50;99.90;;;;;;6183679;28;89178;-64
2022/11/10 01:14:17;;;;;;;4.43;3.92;;;21.50;99.90;;;;;;6183575;28;89099;-64
2022/11/10 01:17:20;;;;;;;4.22;3.83;;;21.50;99.90;;;;;;6182468;28;89036;-64
2022/11/10 01:20:23;;;;;;;4.30;3.90;;;21.50;99.90;;;;;;6182660;28;89204;-64
2022/11/10 01:23:25;;;;;;;4.05;3.65;;;21.50;99.90;;;;;;6182085;28;88256;-64
2022/11/10 01:26:27;;;;;;;4.10;3.70;;;21.50;99.90;;;;;;6181843;28;89199;-64
2022/11/10 01:29:29;;;;;;;4.90;4.00;;;21.40;99.90;;;;;;6181912;28;88421;-64
2022/11/10 01:32:32;;;;;;;4.40;4.00;;;21.40;99.90;;;;;;6182320;28;89349;-64
2022/11/10 01:35:34;;;;;;;4.63;4.05;;;21.40;99.90;;;;;;6182975;28;89044;-64
2022/11/10 01:38:38;;;;;;;4.50;4.10;;;21.40;99.90;;;;;;6182031;28;90052;-64
2022/11/10 01:41:40;;;;;;;4.40;4.00;;;21.40;99.90;;;;;;6182448;28;88334;-64
2022/11/10 01:45:02;;;;;;;3.88;3.58;;;21.40;99.90;;;;;;6178756;28;89435;-64
2022/11/10 01:48:08;;;;;;;4.32;3.92;;;21.40;99.90;;;;;;6178498;28;89390;-64
2022/11/10 01:51:18;;;;;;;4.40;4.00;;;21.40;99.90;;;;;;6175524;28;89055;-64
2022/11/10 01:54:25;;;;;;;4.30;3.90;;;21.40;99.90;;;;;;6178791;28;89083;-64
2022/11/10 01:57:27;;;;;;;4.38;4.00;;;21.40;99.90;;;;;;6182735;28;89076;-64
2022/11/10 02:00:29;;;;;;;4.80;4.30;;;21.40;99.90;;;;;;6181426;28;88852;-64
2022/11/10 02:03:39;;;;;;;4.38;3.97;;;21.40;99.90;;;;;;6182568;28;89293;-64
2022/11/10 02:06:43;;;;;;;4.63;4.20;;;21.40;99.90;;;;;;6182472;28;89373;-64
2022/11/10 02:09:45;;;;;;;4.50;4.10;;;21.40;99.90;;;;;;6182012;28;90134;-64
2022/11/10 02:12:48;;;;;;;5.65;4.60;;;21.40;99.90;;;;;;6181865;28;88517;-64
2022/11/10 02:15:50;;;;;;;4.90;4.40;;;21.40;99.90;;;;;;6181429;28;89076;-64
2022/11/10 02:18:54;;;;;;;4.38;3.97;;;21.40;99.90;;;;;;6182846;28;89222;-64
2022/11/10 02:21:57;;;;;;;4.30;4.00;;;21.40;99.90;;;;;;6181395;28;89322;-64
2022/11/10 02:24:59;;;;;;;4.43;4.03;;;21.30;99.90;;;;;;6181764;28;89108;-64
2022/11/10 02:28:01;;;;;;;4.55;4.15;;;21.40;99.90;;;;;;6181594;28;89374;-64
2022/11/10 02:31:05;;;;;;;4.40;4.00;;;21.30;99.90;;;;;;6182787;28;88562;-64
2022/11/10 02:34:07;;;;;;;4.43;4.03;;;21.40;99.90;;;;;;6181402;28;89314;-64
2022/11/10 02:37:10;;;;;;;5.07;4.40;;;21.40;99.90;;;;;;6180752;28;88013;-64
2022/11/10 02:40:12;;;;;;;4.82;4.32;;;21.30;99.90;;;;;;6180164;28;90145;-64
2022/11/10 02:43:16;;;;;;;5.05;4.60;;;21.30;99.90;;;;;;6182236;28;89563;-64
2022/11/10 02:46:18;;;;;;;4.70;4.30;;;21.40;99.90;;;;;;6170095;28;89217;-64
2022/11/10 02:49:20;;;;;;;4.70;4.30;;;21.30;99.90;;;;;;6181601;28;89198;-64
2022/11/10 02:52:23;;;;;;;5.05;4.55;;;21.30;99.90;;;;;;6180064;28;89124;-64
2022/11/10 02:55:25;;;;;;;5.05;4.53;;;21.30;99.90;;;;;;6181503;28;89267;-64
2022/11/10 02:58:27;;;;;;;4.80;4.40;;;21.30;99.90;;;;;;6179755;28;89150;-64
2022/11/10 03:01:29;;;;;;;4.90;4.50;;;21.30;99.90;;;;;;6181450;28;88415;-64
2022/11/10 03:04:32;;;;;;;4.70;4.30;;;21.30;99.90;;;;;;6180147;28;89197;-64
2022/11/10 03:07:35;;;;;;;5.07;4.43;;;21.30;99.90;;;;;;6184873;28;88045;-64
2022/11/10 03:10:37;;;;;;;5.30;4.78;;;21.30;99.90;;;;;;6184608;28;90303;-64
2022/11/10 03:13:39;;;;;;;4.55;4.15;;;21.30;99.90;;;;;;6184439;28;89211;-64
2022/11/10 03:16:41;;;;;;;5.30;4.80;;;21.30;99.90;;;;;;6184290;28;89288;-64
2022/11/10 03:19:43;;;;;;;5.30;4.80;;;21.30;99.90;;;;;;6186059;28;89068;-64
2022/11/10 03:22:47;;;;;;;5.22;4.60;;;21.30;99.90;;;;;;6184545;28;88439;-64
2022/11/10 03:25:49;;;;;;;4.93;4.53;;;21.30;99.90;;;;;;6184427;28;89578;-64
2022/11/10 03:28:51;;;;;;;5.40;4.90;;;21.30;99.90;;;;;;6181751;28;90876;-64
2022/11/10 03:31:53;;;;;;;5.90;4.88;;;21.30;99.90;;;;;;6185326;28;88430;-64
2022/11/10 03:34:55;;;;;;;5.20;4.70;;;21.30;99.90;;;;;;6184719;28;89107;-65
2022/11/10 03:37:58;;;;;;;5.15;4.65;;;21.20;99.90;;;;;;6183905;28;89169;-64
2022/11/10 03:41:00;;;;;;;4.80;4.40;;;21.20;99.90;;;;;;6179109;28;90139;-64
2022/11/10 03:44:02;;;;;;;5.25;4.78;;;21.30;99.90;;;;;;6185265;28;89126;-64
2022/11/10 03:47:04;;;;;;;7.03;5.60;;;21.20;99.90;;;;;;6183406;28;89404;-64
2022/11/10 03:50:07;;;;;;;5.30;4.78;;;21.20;99.90;;;;;;6184424;28;89124;-65
2022/11/10 03:53:11;;;;;;;5.55;5.05;;;21.20;99.90;;;;;;6184798;28;88298;-64
2022/11/10 03:56:13;;;;;;;6.00;5.40;;;21.20;99.90;;;;;;6182687;28;89811;-64
2022/11/10 03:59:15;;;;;;;5.60;5.10;;;21.20;99.90;;;;;;6187075;28;87989;-64
2022/11/10 04:02:17;;;;;;;5.68;5.10;;;21.20;99.90;;;;;;6184701;28;88437;-64
2022/11/10 04:18:38;;;;;;;5.80;5.30;;;21.20;99.90;;;;;;6182854;28;87335;-64
2022/11/10 04:21:40;;;;;;;5.90;5.30;;;21.20;99.90;;;;;;6183984;28;89265;-64
2022/11/10 04:24:43;;;;;;;5.43;4.93;;;21.20;99.90;;;;;;6183347;28;89347;-64
2022/11/10 04:27:45;;;;;;;6.78;5.70;;;21.20;99.90;;;;;;6183067;28;89299;-64
2022/11/10 04:30:47;;;;;;;5.53;5.03;;;21.10;99.90;;;;;;6184831;28;89110;-64
2022/11/10 04:33:50;;;;;;;5.68;5.15;;;21.20;99.90;;;;;;6184817;28;88596;-64
2022/11/10 04:36:52;;;;;;;5.47;5.05;;;21.10;99.90;;;;;;6182673;28;89068;-64
2022/11/10 04:39:55;;;;;;;5.72;5.10;;;21.20;99.90;;;;;;6183148;28;89052;-64
2022/11/10 04:42:57;;;;;;;5.60;5.10;;;21.20;99.90;;;;;;6183535;28;90348;-64
2022/11/10 04:46:00;;;;;;;5.82;5.22;;;21.20;99.90;;;;;;6184144;28;89053;-64
2022/11/10 04:49:03;;;;;;;5.95;5.35;;;21.20;99.90;;;;;;6182406;28;89776;-64
2022/11/10 04:52:05;;;;;;;5.90;5.40;;;21.20;99.90;;;;;;6171216;28;89260;-64
2022/11/10 04:55:09;;;;;;;5.90;5.38;;;21.30;99.90;;;;;;6182368;28;89218;-64
2022/11/10 04:58:12;;;;;;;6.22;5.63;;;21.30;99.90;;;;;;6182922;28;90370;-64
2022/11/10 05:01:16;;;;;;;5.63;5.13;;;21.30;99.90;;;;;;6179178;28;88059;-64
2022/11/10 05:04:18;;;;;;;5.78;5.28;;;21.30;99.90;;;;;;6183728;28;88306;-64
2022/11/10 05:07:20;;;;;;;6.28;5.68;;;21.30;99.90;;;;;;6182924;28;89085;-64
2022/11/10 05:10:24;;;;;;;5.95;5.38;;;21.30;99.90;;;;;;6183493;28;88100;-64
2022/11/10 05:13:26;;;;;;;5.90;5.30;;;21.40;99.90;;;;;;6172626;28;90013;-64
2022/11/10 05:16:28;;;;;;;6.82;5.65;;;21.40;99.90;;;;;;6183422;28;89182;-64
2022/11/10 05:19:30;;;;;;;5.65;5.13;;;21.40;99.90;;;;;;6183043;28;89292;-64
2022/11/10 05:22:33;;;;;;;5.50;5.00;;;21.40;99.90;;;;;;6183414;28;89183;-64
2022/11/10 05:25:38;;;;;;;6.07;5.47;;;21.40;99.90;;;;;;6182548;28;89202;-64
2022/11/10 05:28:41;;;;;;;5.30;4.80;;;21.50;99.90;;;;;;6182548;28;89418;-64
2022/11/10 05:31:43;;;;;;;5.28;4.78;;;21.40;99.90;;;;;;6182290;28;89259;-64
2022/11/10 05:34:45;;;;;;;5.63;5.13;;;21.50;99.90;;;;;;6182234;28;88378;-64
2022/11/10 05:37:47;;;;;;;5.93;5.32;;;21.50;99.90;;;;;;6181304;28;89216;-64
2022/11/10 05:40:50;;;;;;;5.53;5.00;;;21.50;99.90;;;;;;6183405;28;89208;-64
2022/11/10 05:43:53;;;;;;;5.95;5.38;;;21.50;99.90;;;;;;6182453;28;90043;-64
2022/11/10 05:46:55;;;;;;;5.65;5.03;;;21.50;99.90;;;;;;6182326;28;89136;-64
2022/11/10 05:49:56;;;;;;;5.80;5.18;;;21.50;99.90;;;;;;6182017;28;89187;-64
2022/11/10 05:52:58;;;;;;;10.40;6.93;;;21.50;99.90;;;;;;6181277;28;89338;-64
2022/11/10 05:56:02;;;;;;;7.45;6.10;;;21.50;98.00;;;;;;6181858;28;88577;-64
2022/11/10 05:59:04;;;;;;;6.20;5.53;;;21.50;96.90;;;;;;6182144;28;89238;-64
2022/11/10 06:02:06;;;;;;;7.15;5.38;;;21.50;96.80;;;;;;6182261;28;89966;-64
2022/11/10 06:05:09;;;;;;;6.40;5.80;;;21.50;96.90;;;;;;6181869;28;87428;-65
2022/11/10 06:08:11;;;;;;;8.32;5.40;;;21.50;96.90;;;;;;6181093;28;89215;-64
2022/11/10 06:11:15;;;;;;;6.22;5.53;;;21.60;97.20;;;;;;6180415;28;89075;-64
2022/11/10 06:14:17;;;;;;;7.32;5.90;;;21.50;97.10;;;;;;6181252;28;90068;-64
2022/11/10 06:17:19;;;;;;;6.95;5.75;;;21.60;97.10;;;;;;6182317;28;89118;-64
2022/11/10 06:20:21;;;;;;;6.90;5.60;;;21.50;97.10;;;;;;6182770;28;89480;-65
2022/11/10 06:23:23;;;;;;;6.68;5.28;;;21.50;97.10;;;;;;6181888;28;88030;-64
2022/11/10 06:26:26;;;;;;;5.95;5.35;;;21.60;97.20;;;;;;6181926;28;89206;-64
2022/11/10 06:29:28;;;;;;;6.20;5.50;;;21.50;97.30;;;;;;6181087;28;89363;-64
2022/11/10 06:32:30;;;;;;;5.90;5.40;;;21.50;97.40;;;;;;6181206;28;89190;-65
2022/11/10 06:35:32;;;;;;;7.38;5.22;;;21.50;97.40;;;;;;6180997;28;88543;-64
2022/11/10 06:38:34;;;;;;;7.95;5.70;;;21.50;97.50;;;;;;6180802;28;89187;-64
2022/11/10 06:41:38;;;;;;;6.18;5.45;;;21.50;97.50;;;;;;6181530;28;89099;-64
2022/11/10 06:44:40;;;;;;;6.03;5.43;;;21.50;97.50;;;;;;6181103;28;90225;-65
2022/11/10 06:47:42;;;;;;;5.75;5.15;;;21.60;97.60;;;;;;6180673;28;89361;-64
2022/11/10 06:50:44;;;;;;;6.18;5.13;;;21.60;97.60;;;;;;6181913;28;89532;-64
2022/11/10 06:53:46;;;;;;;6.75;5.40;;;21.60;97.60;;;;;;6181608;28;89436;-64
2022/11/10 06:56:49;;;;;;;5.40;4.90;;;21.50;97.50;;;;;;6181379;28;88705;-64
2022/11/10 06:59:51;;;;;;;6.43;4.78;;;21.50;97.60;;;;;;6181486;28;89293;-64
2022/11/10 07:03:04;;;;;;;7.22;5.70;;;21.50;97.70;;;;;;6181793;28;89147;-65
2022/11/10 07:06:07;;;;;;;5.60;5.10;;;21.50;97.70;;;;;;6180283;28;88533;-64
2022/11/10 07:09:09;;;;;;;6.20;4.90;;;21.50;97.80;;;;;;6181463;28;88274;-64
2022/11/10 07:12:12;;;;;;;5.75;5.15;;;21.50;97.80;;;;;;6181635;28;89250;-65
2022/11/10 07:15:14;;;;;;;7.65;5.82;;;21.50;97.90;;;;;;6180004;28;90402;-64
2022/11/10 07:18:16;;;;;;;6.25;5.07;;;21.50;97.90;;;;;;6180720;28;88348;-64
2022/11/10 07:21:18;;;;;;;5.50;5.00;;;21.50;97.90;;;;;;6180792;28;89106;-65
2022/11/10 07:24:20;;;;;;;5.75;4.90;;;21.50;97.90;;;;;;6180908;28;89703;-65
2022/11/10 07:27:24;;;;;;;5.55;5.03;;;21.50;97.90;;;;;;6180699;28;89112;-65
2022/11/10 07:30:26;;;;;;;6.45;5.57;;;21.60;97.90;;;;;;6180860;28;88371;-64
2022/11/10 07:33:28;;;;;;;6.15;4.70;;;21.60;97.90;;;;;;6181600;28;89139;-65
2022/11/10 07:36:30;;;;;;;5.90;5.30;;;21.60;97.90;;;;;;6180396;28;88433;-64
2022/11/10 07:39:32;;;;;;;6.63;5.30;;;21.50;97.90;;;;;;6179935;28;89290;-64
2022/11/10 07:42:40;;;;;;;5.38;4.68;;;21.60;98.00;;;;;;6180315;28;88960;-64
2022/11/10 07:45:42;;;;;;;5.72;5.13;;;21.50;98.00;;;;;;6179759;28;90257;-64
2022/11/10 07:48:44;;;;;;;5.30;4.80;;;21.50;98.00;;;;;;6178127;28;88041;-65
2022/11/10 07:51:46;;;;;;;5.40;4.90;;;21.50;98.10;;;;;;6179025;28;89169;-65
2022/11/10 07:54:48;;;;;;;6.47;4.95;;;21.50;98.10;;;;;;6184825;28;87984;-64
2022/11/10 07:57:56;;;;;;;5.70;5.20;;;21.50;98.20;;;;;;6184276;28;89206;-64
2022/11/10 08:00:58;;;;;;;4.72;4.25;;;21.50;98.20;;;;;;6184444;28;89261;-64
2022/11/10 08:04:00;;;;;;;6.88;5.18;;;21.50;98.20;;;;;;6185168;28;89450;-64
2022/11/10 08:07:02;;;;;;;5.88;4.93;;;21.50;98.20;;;;;;6185097;28;88431;-65
2022/11/10 08:10:05;;;;;;;6.43;5.07;;;21.50;98.20;;;;;;6184993;28;89226;-65
2022/11/10 08:13:10;;;;;;;5.35;4.85;;;21.60;98.20;;;;;;6184107;28;89138;-64
2022/11/10 08:16:12;;;;;;;8.23;5.07;;;21.50;98.20;;;;;;6183345;28;90509;-64
2022/11/10 08:19:13;;;;;;;5.20;4.70;;;21.50;98.10;;;;;;6184249;28;89148;-65
2022/11/10 08:22:15;;;;;;;5.00;4.50;;;21.60;98.20;;;;;;6184706;28;89610;-65
2022/11/10 08:25:18;;;;;;;5.55;4.72;;;21.50;98.20;;;;;;6183682;28;89214;-64
2022/11/10 08:28:21;;;;;;;5.72;4.55;;;21.60;98.30;;;;;;6182514;28;88083;-64
2022/11/10 08:31:23;;;;;;;5.18;4.68;;;21.50;98.30;;;;;;6184586;28;89074;-64
2022/11/10 08:34:25;;;;;;;4.88;4.38;;;21.50;98.40;;;;;;6184061;28;89111;-64
2022/11/10 08:37:27;;;;;;;5.30;4.80;;;21.60;98.40;;;;;;6184175;28;88487;-64
2022/11/10 08:40:29;;;;;;;5.13;4.63;;;21.50;98.40;;;;;;6183336;28;89201;-64
2022/11/10 08:43:33;;;;;;;4.90;4.40;;;21.50;98.40;;;;;;6182581;28;89019;-64
2022/11/10 08:46:35;;;;;;;5.20;4.70;;;21.50;98.50;;;;;;6182382;28;90216;-64
2022/11/10 08:49:37;;;;;;;4.60;4.20;;;21.60;98.50;;;;;;6182561;28;89333;-65
2022/11/10 08:52:39;;;;;;;5.00;4.50;;;21.50;98.40;;;;;;6182697;28;89075;-65
2022/11/10 08:55:41;;;;;;;4.78;4.35;;;21.50;98.40;;;;;;6183477;28;89188;-65
2022/11/10 08:58:46;;;;;;;4.60;4.18;;;21.50;98.40;;;;;;6183125;28;89183;-64
2022/11/10 09:01:48;;;;;;;4.50;4.10;;;21.60;98.40;;;;;;6183245;28;89599;-64
2022/11/10 09:04:52;;;;;;;5.00;4.50;;;21.60;98.50;;;;;;6183189;28;88155;-65
2022/11/10 09:07:54;;;;;;;5.07;4.53;;;21.50;98.50;;;;;;6184051;28;88401;-64
2022/11/10 09:10:56;;;;;;;4.65;4.18;;;21.50;98.50;;;;;;6182919;28;89226;-65
2022/11/10 09:13:59;;;;;;;4.90;4.40;;;21.50;98.60;;;;;;6182473;28;89348;-65
2022/11/10 09:17:01;;;;;;;4.90;4.20;;;21.50;98.60;;;;;;6182188;28;90135;-64
2022/11/10 09:20:04;;;;;;;4.60;4.10;;;21.50;98.60;;;;;;6182906;28;89348;-65
2022/11/10 09:23:08;;;;;;;4.70;4.30;;;21.50;98.60;;;;;;6183829;28;89078;-65
2022/11/10 09:26:11;;;;;;;4.30;3.90;;;21.50;98.60;;;;;;6183281;28;89123;-65
2022/11/10 09:29:14;;;;;;;4.40;3.90;;;21.50;98.60;;;;;;6182091;28;88173;-64
2022/11/10 09:32:16;;;;;;;6.00;4.38;;;21.50;98.60;;;;;;6183219;28;89392;-65
2022/11/10 09:35:18;;;;;;;5.15;4.40;;;21.60;98.60;;;;;;6183348;28;89182;-64
2022/11/10 09:38:20;;;;;;;4.95;4.45;;;21.50;98.60;;;;;;6182399;28;87809;-64
2022/11/10 09:41:22;;;;;;;4.13;3.72;;;21.60;98.60;;;;;;6181328;28;89203;-64
2022/11/10 09:44:28;;;;;;;4.68;4.20;;;21.60;98.60;;;;;;6182473;28;89077;-64
2022/11/10 09:47:38;;;;;;;4.32;3.90;;;21.60;98.60;;;;;;6182306;28;89232;-64
2022/11/10 09:50:44;;;;;;;4.35;3.95;;;21.60;98.70;;;;;;6182050;28;89018;-65
2022/11/10 09:53:51;;;;;;;4.28;3.90;;;21.50;98.70;;;;;;6181938;28;89260;-64
2022/11/10 09:56:55;;;;;;;4.32;3.90;;;21.60;98.80;;;;;;6181682;28;88022;-65
2022/11/10 09:59:59;;;;;;;4.97;4.10;;;21.50;98.80;;;;;;6182091;28;88003;-64
2022/11/10 10:03:03;;;;;;;3.90;3.60;;;21.50;98.80;;;;;;6181401;28;89191;-64
2022/11/10 10:06:09;;;;;;;4.40;4.00;;;21.50;99.20;;;;;;6181862;28;88031;-65
2022/11/10 10:09:18;;;;;;;4.30;3.90;;;21.50;98.80;;;;;;6182962;28;88740;-64
2022/11/10 10:12:39;;;;;;;4.63;4.18;;;21.50;98.90;;;;;;6180832;28;89221;-65
2022/11/10 10:15:51;;;;;;;4.05;3.63;;;21.50;98.90;;;;;;6179815;28;89152;-64
2022/11/10 10:18:58;;;;;;;4.30;3.90;;;21.60;98.90;;;;;;6181125;28;90219;-65
2022/11/10 10:22:22;;;;;;;3.70;3.40;;;21.50;98.90;;;;;;6182335;28;88206;-65
2022/11/10 10:25:26;;;;;;;3.67;3.30;;;21.60;98.80;;;;;;6170103;28;89168;-64
2022/11/10 10:28:35;;;;;;;4.20;3.60;;;21.60;98.90;;;;;;6180868;28;89195;-64
2022/11/10 10:31:42;;;;;;;4.38;3.97;;;21.50;98.90;;;;;;6181412;28;89059;-65
2022/11/10 10:34:45;;;;;;;3.83;3.50;;;21.50;98.90;;;;;;6181789;28;89210;-65
2022/11/10 10:37:52;;;;;;;3.97;3.58;;;21.50;98.90;;;;;;6181404;28;89157;-65
2022/11/10 10:40:58;;;;;;;3.72;3.42;;;21.50;99.00;;;;;;6181487;28;88619;-65
2022/11/10 10:44:02;;;;;;;3.85;3.55;;;21.50;99.00;;;;;;6181471;28;89157;-65
2022/11/10 10:47:06;;;;;;;3.72;3.42;;;21.50;99.10;;;;;;6180945;28;89196;-65
2022/11/10 10:50:24;;;;;;;4.07;3.72;;;21.50;99.10;;;;;;6181028;28;90131;-65
2022/11/10 10:53:26;;;;;;;3.70;3.40;;;21.40;99.20;;;;;;6181304;28;89069;-65
2022/11/10 10:56:32;;;;;;;3.65;3.35;;;21.40;99.20;;;;;;6180041;28;90294;-65
2022/11/10 10:59:34;;;;;;;3.92;3.53;;;21.40;99.20;;;;;;6181136;28;89142;-65
2022/11/10 11:02:37;;;;;;;3.78;3.47;;;21.50;99.30;;;;;;6181322;28;89169;-64
2022/11/10 11:05:39;;;;;;;3.45;3.15;;;21.40;99.20;;;;;;6181309;28;88201;-64
2022/11/10 11:08:53;;;;;;;4.53;3.60;;;21.50;99.30;;;;;;6181097;28;88067;-65
2022/11/10 11:12:04;;;;;;;5.95;4.03;;;21.40;99.30;;;;;;6179656;28;87425;-65
2022/11/10 11:15:19;;;;;;;4.10;3.45;;;21.50;99.30;;;;;;6179837;28;88054;-64
2022/11/10 11:18:23;;;;;;;4.50;3.60;;;21.40;99.30;;;;;;6181420;28;89222;-64
2022/11/10 11:21:32;;;;;;;3.78;3.38;;;21.40;99.30;;;;;;6180350;28;90307;-65
2022/11/10 11:24:41;;;;;;;4.05;3.60;;;21.40;99.40;;;;;;6180670;28;89004;-64
2022/11/10 11:27:49;;;;;;;5.70;3.50;;;21.40;99.40;;;;;;6183292;28;87973;-65
2022/11/10 11:31:02;;;;;;;4.40;3.50;;;21.40;99.40;;;;;;6185324;28;88757;-64
2022/11/10 11:34:14;;;;;;;6.20;4.07;;;21.40;99.40;;;;;;6183747;28;89727;-65
2022/11/10 11:37:24;;;;;;;4.35;3.35;;;21.50;99.40;;;;;;6185872;28;89059;-64
2022/11/10 11:40:34;;;;;;;5.55;3.70;;;21.50;99.40;;;;;;6184097;28;88047;-64
2022/11/10 11:44:20;;;;;;;3.50;3.13;;;21.50;99.30;;;;;;6185364;28;88434;-64
2022/11/10 11:47:37;;;;;;;3.35;3.05;;;21.50;99.30;;;;;;6185165;28;89510;-64
2022/11/10 11:50:49;;;;;;;3.20;2.90;;;21.50;99.30;;;;;;6184786;28;89032;-65
2022/11/10 11:54:27;;;;;;;3.90;3.30;;;21.50;99.30;;;;;;6184259;28;89983;-64
2022/11/10 11:57:39;;;;;;;3.40;3.00;;;21.50;99.30;;;;;;6183775;28;89523;-64
2022/11/10 12:00:49;;;;;;;3.10;2.80;;;21.50;99.40;;;;;;6182448;28;89126;-64
2022/11/10 12:04:37;;;;;;;5.22;3.47;;;21.50;99.40;;;;;;6184558;28;89319;-64
2022/11/10 12:07:51;;;;;;;3.15;2.85;;;21.50;99.40;;;;;;6183100;28;89268;-64
2022/11/10 12:11:05;;;;;;;3.33;3.03;;;21.40;99.40;;;;;;6184344;28;89105;-64
2022/11/10 12:14:17;;;;;;;3.40;3.08;;;21.50;99.50;;;;;;6183918;28;89110;-64
2022/11/10 12:17:25;;;;;;;3.38;3.08;;;21.50;99.50;;;;;;6184215;28;88419;-65
2022/11/10 12:20:37;;;;;;;3.33;3.03;;;21.50;99.40;;;;;;6184751;28;89344;-65
2022/11/10 12:23:55;;;;;;;3.22;2.90;;;21.50;99.40;;;;;;6184377;28;89240;-64
2022/11/10 12:26:59;;;;;;;3.08;2.85;;;21.50;99.40;;;;;;6183975;28;90271;-64
2022/11/10 12:30:04;;;;;;;4.25;2.65;;;21.50;99.40;;;;;;6184396;28;89273;-64
2022/11/10 12:33:16;;;;;;;3.25;2.90;;;21.50;99.40;;;;;;6183228;28;89132;-65
2022/11/10 12:36:22;;;;;;;3.10;2.80;;;21.50;99.50;;;;;;6182968;28;89159;-64
2022/11/10 12:39:34;;;;;;;3.33;2.90;;;21.50;99.50;;;;;;6182582;28;89910;-64
2022/11/10 12:42:38;;;;;;;3.05;2.70;;;21.50;99.60;;;;;;6183576;28;89258;-64
2022/11/10 12:45:45;;;;;;;3.33;3.00;;;21.50;99.60;;;;;;6184087;28;89265;-64
2022/11/10 12:49:00;;;;;;;3.33;3.00;;;21.50;99.60;;;;;;6183363;28;88256;-65
2022/11/10 12:52:09;;;;;;;2.92;2.63;;;21.50;99.60;;;;;;6184125;28;89128;-65
2022/11/10 12:55:14;;;;;;;3.25;2.90;;;21.50;99.70;;;;;;6183186;28;89108;-64
2022/11/10 12:58:18;;;;;;;2.95;2.65;;;21.50;99.60;;;;;;6182510;28;90117;-65
2022/11/10 13:01:20;;;;;;;3.45;2.85;;;21.50;99.90;;;;;;6182978;28;89435;-65
2022/11/10 13:04:23;;;;;;;2.85;2.55;;;21.60;99.60;;;;;;6183656;28;89152;-65
2022/11/10 13:07:25;;;;;;;3.00;2.67;;;21.50;99.60;;;;;;6182891;28;89329;-64
2022/11/10 13:10:29;;;;;;;2.75;2.55;;;21.50;99.60;;;;;;6182492;28;89096;-65
2022/11/10 13:13:40;;;;;;;3.15;2.75;;;21.50;99.60;;;;;;6181364;28;89271;-64
2022/11/10 13:16:50;;;;;;;3.05;2.50;;;21.50;99.60;;;;;;6181877;28;88039;-64
2022/11/10 13:19:53;;;;;;;2.53;2.33;;;21.50;99.60;;;;;;6184101;28;87626;-65
2022/11/10 13:22:55;;;;;;;2.85;2.55;;;21.50;99.70;;;;;;6183579;28;89171;-64
2022/11/10 13:26:01;;;;;;;2.38;2.17;;;21.50;99.60;;;;;;6183167;28;88149;-64
2022/11/10 13:29:18;;;;;;;3.03;2.70;;;21.50;99.70;;;;;;6182722;28;90550;-64
2022/11/10 13:32:29;;;;;;;2.67;2.40;;;21.50;99.70;;;;;;6182699;28;89143;-64
2022/11/10 13:35:53;;;;;;;2.85;2.45;;;21.50;99.70;;;;;;6182475;28;88072;-64
2022/11/10 13:38:56;;;;;;;2.60;2.38;;;21.50;99.70;;;;;;6182823;28;89127;-64
2022/11/10 13:42:16;;;;;;;3.13;2.60;;;21.50;99.70;;;;;;6182421;28;88990;-64
2022/11/10 13:45:29;;;;;;;2.78;2.50;;;21.50;99.90;;;;;;6182250;28;89391;-64
2022/11/10 13:48:46;;;;;;;2.50;2.30;;;21.50;99.60;;;;;;6181663;28;87968;-64
2022/11/10 13:51:56;;;;;;;2.35;2.10;;;21.50;99.60;;;;;;6181180;28;88304;-64
2022/11/10 13:55:11;;;;;;;3.45;2.47;;;21.60;99.70;;;;;;6182754;28;89277;-64
2022/11/10 13:58:22;;;;;;;2.90;2.40;;;21.50;99.70;;;;;;6181522;28;89405;-64
2022/11/10 14:01:29;;;;;;;3.42;2.78;;;21.50;99.70;;;;;;6174988;28;90042;-64
2022/11/10 14:04:42;;;;;;;2.97;2.35;;;21.50;99.80;;;;;;6182816;28;89213;-64
2022/11/10 14:07:45;;;;;;;2.67;2.42;;;21.50;99.80;;;;;;6182821;28;89213;-64
2022/11/10 14:10:51;;;;;;;2.85;2.30;;;21.60;99.80;;;;;;6182086;28;89305;-64
2022/11/10 14:13:59;;;;;;;2.53;2.33;;;21.50;99.80;;;;;;6181117;28;89535;-64
2022/11/10 14:17:02;;;;;;;2.58;2.35;;;21.50;99.80;;;;;;6181194;28;89499;-64
2022/11/10 14:20:04;;;;;;;2.50;2.30;;;21.60;99.80;;;;;;6182101;28;89246;-64
2022/11/10 14:23:11;;;;;;;2.30;2.10;;;21.50;99.70;;;;;;6183039;28;87266;-64
2022/11/10 14:26:22;;;;;;;2.33;2.13;;;21.60;99.70;;;;;;6181912;28;88371;-64
2022/11/10 14:29:37;;;;;;;2.10;1.90;;;21.60;99.70;;;;;;6182178;28;89116;-64
2022/11/10 14:32:39;;;;;;;2.40;2.20;;;21.60;99.70;;;;;;6181173;28;89989;-65
2022/11/10 14:35:47;;;;;;;2.42;2.10;;;21.50;99.70;;;;;;6182169;28;89148;-64
2022/11/10 14:38:51;;;;;;;2.15;1.95;;;21.60;99.70;;;;;;6181226;28;89537;-64
2022/11/10 14:41:53;;;;;;;3.28;2.38;;;21.60;99.80;;;;;;6181373;28;89238;-65
2022/11/10 14:45:17;;;;;;;2.42;2.22;;;21.50;99.80;;;;;;6181577;28;89379;-64
2022/11/10 14:48:21;;;;;;;2.83;2.05;;;21.50;99.80;;;;;;6172769;28;87956;-64
2022/11/10 14:51:24;;;;;;;2.55;2.13;;;21.60;99.90;;;;;;6180477;28;89597;-64
2022/11/10 14:54:27;;;;;;;2.15;1.95;;;21.50;99.90;;;;;;6182539;28;88431;-64
2022/11/10 14:57:29;;;;;;;2.92;2.10;;;21.50;99.90;;;;;;6181600;28;88236;-65
2022/11/10 15:00:36;;;;;;;2.30;1.92;;;21.50;99.90;;;;;;6181018;28;89136;-64
2022/11/10 15:03:40;;;;;;;2.33;2.10;;;21.50;99.90;;;;;;6180759;28;90177;-64
2022/11/10 15:06:43;;;;;;;2.58;2.00;;;21.50;99.90;;;;;;6167793;28;89235;-65
2022/11/10 15:10:04;;;;;;;2.53;2.10;;;21.50;99.90;;;;;;6181785;28;89557;-64
2022/11/10 15:13:18;;;;;;;2.25;2.05;;;21.50;99.90;;;;;;6181513;28;89100;-65
2022/11/10 15:16:26;;;;;;;1.88;1.77;;;21.50;99.80;;;;;;6181120;28;89503;-64
2022/11/10 15:19:30;;;;;;;2.00;1.80;;;21.60;99.90;;;;;;6181131;28;89243;-65
2022/11/10 15:22:36;;;;;;;3.70;2.40;;;21.50;99.80;;;;;;6181455;28;89618;-64
2022/11/10 15:25:40;;;;;;;2.72;2.15;;;21.50;99.80;;;;;;6181054;28;89065;-64
2022/11/10 15:28:42;;;;;;;2.20;2.00;;;21.60;99.90;;;;;;6182771;28;89194;-64
2022/11/10 15:31:46;;;;;;;2.25;2.00;;;21.50;99.90;;;;;;6180657;28;89261;-65
2022/11/10 15:34:49;;;;;;;2.15;1.88;;;21.50;99.90;;;;;;6180503;28;89048;-65
2022/11/10 15:37:59;;;;;;;2.08;1.80;;;21.50;99.90;;;;;;6180603;28;89485;-64
2022/11/10 15:41:11;;;;;;;1.98;1.77;;;21.50;99.90;;;;;;6180426;28;89272;-65
2022/11/10 15:44:18;;;;;;;2.17;1.98;;;21.50;99.90;;;;;;6180289;28;89303;-64
2022/11/10 15:47:21;;;;;;;2.33;1.83;;;21.50;99.90;;;;;;6179229;28;89247;-64
2022/11/10 15:50:25;;;;;;;1.88;1.73;;;21.50;99.90;;;;;;6179479;28;88663;-65
2022/11/10 15:53:31;;;;;;;2.13;1.75;;;21.50;99.90;;;;;;6180151;28;89475;-64
2022/11/10 15:56:33;;;;;;;3.03;2.00;;;21.50;99.90;;;;;;6180599;28;88722;-64
2022/11/10 15:59:35;;;;;;;2.15;1.80;;;21.50;99.90;;;;;;6179631;28;88510;-64
2022/11/10 16:02:39;;;;;;;2.00;1.80;;;21.50;99.90;;;;;;6180308;28;89631;-64
2022/11/10 16:05:41;;;;;;;2.78;2.10;;;21.50;99.90;;;;;;6178733;28;91904;-65
2022/11/10 16:08:43;;;;;;;4.63;2.55;;;21.50;99.90;;;;;;6178456;28;89255;-65
2022/11/10 16:11:46;;;;;;;2.15;1.70;;;21.50;99.90;;;;;;6180855;28;88053;-65
2022/11/10 16:14:53;;;;;;;1.90;1.65;;;21.50;99.90;;;;;;6183392;28;89397;-64
2022/11/10 16:17:57;;;;;;;1.92;1.73;;;21.50;99.90;;;;;;6184300;28;88329;-64
2022/11/10 16:20:59;;;;;;;2.10;1.80;;;21.50;99.90;;;;;;6184048;28;89659;-64